createdAt,value
2019-02-20T00:00:15.820Z,3.17
2019-02-20T00:01:15.793Z,3.26
2019-02-20T00:02:15.784Z,3.08
2019-02-20T00:03:15.765Z,3.09
2019-02-20T00:04:15.798Z,3.09
2019-02-20T00:05:15.747Z,3.17
2019-02-20T00:06:15.734Z,3.12
2019-02-20T00:07:15.724Z,3.08
2019-02-20T00:08:15.767Z,3.14
2019-02-20T00:09:15.699Z,3.12
2019-02-20T00:10:15.688Z,3.05
2019-02-20T00:11:15.688Z,3.00
2019-02-20T00:12:15.665Z,2.97
2019-02-20T00:13:15.704Z,2.96
2019-02-20T00:14:15.687Z,2.96
2019-02-20T00:15:15.634Z,2.97
2019-02-20T00:16:15.662Z,2.99
2019-02-20T00:17:15.654Z,3.00
2019-02-20T00:18:15.600Z,2.97
2019-02-20T00:19:15.591Z,2.93
2019-02-20T00:20:15.576Z,2.86
2019-02-20T00:21:15.567Z,2.84
2019-02-20T00:22:15.557Z,2.96
2019-02-20T00:23:15.613Z,3.00
2019-02-20T00:24:15.538Z,2.94
2019-02-20T00:25:15.527Z,2.96
2019-02-20T00:26:15.510Z,2.99
2019-02-20T00:27:15.503Z,3.09
2019-02-20T00:28:15.532Z,3.25
2019-02-20T00:29:15.477Z,3.18
2019-02-20T00:30:15.482Z,3.17
2019-02-20T00:31:15.457Z,3.17
2019-02-20T00:32:15.445Z,3.11
2019-02-20T00:33:15.440Z,3.11
2019-02-20T00:34:15.485Z,3.18
2019-02-20T00:35:15.424Z,3.07
2019-02-20T00:36:15.405Z,3.05
2019-02-20T00:37:15.399Z,2.97
2019-02-20T00:38:15.422Z,3.05
2019-02-20T00:39:15.404Z,2.96
2019-02-20T00:40:15.401Z,2.96
2019-02-20T00:41:15.348Z,2.82
2019-02-20T00:42:15.335Z,2.87
2019-02-20T00:43:15.326Z,2.71
2019-02-20T00:44:15.355Z,2.79
2019-02-20T00:45:15.307Z,2.71
2019-02-20T00:46:15.294Z,2.69
2019-02-20T00:47:15.281Z,2.58
2019-02-20T00:48:15.339Z,2.63
2019-02-20T00:49:15.258Z,2.57
2019-02-20T00:50:15.247Z,2.66
2019-02-20T00:51:15.239Z,2.81
2019-02-20T00:52:15.226Z,2.82
2019-02-20T00:53:15.214Z,2.76
2019-02-20T00:54:15.243Z,2.72
2019-02-20T00:55:15.195Z,2.65
2019-02-20T00:56:15.181Z,2.65
2019-02-20T00:57:15.209Z,2.68
2019-02-20T00:58:15.156Z,2.73
2019-02-20T00:59:16.870Z,2.87
2019-02-20T01:00:15.134Z,2.82
2019-02-20T01:01:15.124Z,2.86
2019-02-20T01:02:15.117Z,2.84
2019-02-20T01:03:15.149Z,2.81
2019-02-20T01:04:15.093Z,2.81
2019-02-20T01:05:15.088Z,2.81
2019-02-20T01:06:15.069Z,2.81
2019-02-20T01:07:15.062Z,2.82
2019-02-20T01:08:15.124Z,2.82
2019-02-20T01:09:15.036Z,2.94
2019-02-20T01:10:15.027Z,2.94
2019-02-20T01:11:15.031Z,3.00
2019-02-20T01:12:15.002Z,3.14
2019-02-20T01:13:14.995Z,3.15
2019-02-20T01:14:15.021Z,3.07
2019-02-20T01:15:14.978Z,2.97
2019-02-20T01:16:14.970Z,3.07
2019-02-20T01:17:14.992Z,3.02
2019-02-20T01:18:14.948Z,2.93
2019-02-20T01:19:14.938Z,2.91
2019-02-20T01:20:14.940Z,2.79
2019-02-20T01:21:14.906Z,2.79
2019-02-20T01:22:14.936Z,2.97
2019-02-20T01:23:14.880Z,2.84
2019-02-20T01:24:14.873Z,2.94
2019-02-20T01:25:14.871Z,3.00
2019-02-20T01:26:14.848Z,2.96
2019-02-20T01:27:14.838Z,2.91
2019-02-20T01:28:14.868Z,3.00
2019-02-20T01:29:14.816Z,3.05
2019-02-20T01:30:14.808Z,2.99
2019-02-20T01:31:14.794Z,3.00
2019-02-20T01:32:14.787Z,2.94
2019-02-20T01:33:16.554Z,2.99
2019-02-20T01:34:14.815Z,3.11
2019-02-20T01:35:14.753Z,3.14
2019-02-20T01:36:14.742Z,3.14
2019-02-20T01:37:14.727Z,3.15
2019-02-20T01:38:14.718Z,3.12
2019-02-20T01:39:14.704Z,3.15
2019-02-20T01:40:14.737Z,2.99
2019-02-20T01:41:14.691Z,3.02
2019-02-20T01:42:14.672Z,3.00
2019-02-20T01:43:14.705Z,2.97
2019-02-20T01:44:14.656Z,2.99
2019-02-20T01:45:14.638Z,3.07
2019-02-20T01:46:14.633Z,3.00
2019-02-20T01:47:14.634Z,2.97
2019-02-20T01:48:14.610Z,2.86
2019-02-20T01:49:14.636Z,2.76
2019-02-20T01:50:14.592Z,2.84
2019-02-20T01:51:14.571Z,2.84
2019-02-20T01:52:14.565Z,2.76
2019-02-20T01:53:14.552Z,2.84
2019-02-20T01:54:14.582Z,2.87
2019-02-20T01:55:14.527Z,2.82
2019-02-20T01:56:14.518Z,2.86
2019-02-20T01:57:14.561Z,2.84
2019-02-20T01:58:14.495Z,2.94
2019-02-20T01:59:14.499Z,2.86
2019-02-20T02:00:14.472Z,2.87
2019-02-20T02:01:14.462Z,2.84
2019-02-20T02:02:14.450Z,2.84
2019-02-20T02:03:14.483Z,2.78
2019-02-20T02:04:14.475Z,2.84
2019-02-20T02:05:15.795Z,2.81
2019-02-20T02:06:14.448Z,2.81
2019-02-20T02:07:14.401Z,2.87
2019-02-20T02:08:14.387Z,2.81
2019-02-20T02:09:14.382Z,2.96
2019-02-20T02:10:14.363Z,2.81
2019-02-20T02:11:14.376Z,2.86
2019-02-20T02:12:14.383Z,2.81
2019-02-20T02:13:14.331Z,2.71
2019-02-20T02:14:14.317Z,2.76
2019-02-20T02:15:20.579Z,2.61
2019-02-20T02:16:15.294Z,2.61
2019-02-20T02:17:14.285Z,2.53
2019-02-20T02:18:14.317Z,2.65
2019-02-20T02:19:14.265Z,2.53
2019-02-20T02:20:14.251Z,2.63
2019-02-20T02:21:14.241Z,2.60
2019-02-20T02:22:14.270Z,2.61
2019-02-20T02:23:19.902Z,2.58
2019-02-20T02:24:15.250Z,2.60
2019-02-20T02:25:14.196Z,2.66
2019-02-20T02:26:14.186Z,2.63
2019-02-20T02:27:14.221Z,2.60
2019-02-20T02:28:14.161Z,2.69
2019-02-20T02:29:14.197Z,2.69
2019-02-20T02:30:14.142Z,2.66
2019-02-20T02:31:14.136Z,2.57
2019-02-20T02:32:14.119Z,2.53
2019-02-20T02:33:14.112Z,2.42
2019-02-20T02:34:14.096Z,2.53
2019-02-20T02:35:14.131Z,2.57
2019-02-20T02:36:14.082Z,2.60
2019-02-20T02:37:14.063Z,2.81
2019-02-20T02:38:14.053Z,2.90
2019-02-20T02:39:14.090Z,2.76
2019-02-20T02:40:14.061Z,2.71
2019-02-20T02:41:14.023Z,2.60
2019-02-20T02:42:14.016Z,2.61
2019-02-20T02:43:13.997Z,2.63
2019-02-20T02:44:13.988Z,2.65
2019-02-20T02:45:14.015Z,2.51
2019-02-20T02:46:13.987Z,2.51
2019-02-20T02:47:13.952Z,2.47
2019-02-20T02:48:13.942Z,2.45
2019-02-20T02:49:14.035Z,2.48
2019-02-20T02:50:13.936Z,2.42
2019-02-20T02:51:13.913Z,2.50
2019-02-20T02:52:13.940Z,2.47
2019-02-20T02:53:13.885Z,2.50
2019-02-20T02:54:13.898Z,2.47
2019-02-20T02:55:13.868Z,2.47
2019-02-20T02:56:13.861Z,2.45
2019-02-20T02:57:13.843Z,2.48
2019-02-20T02:58:13.887Z,2.42
2019-02-20T02:59:13.844Z,2.36
2019-02-20T03:00:13.839Z,2.50
2019-02-20T03:01:13.804Z,2.45
2019-02-20T03:02:13.787Z,2.54
2019-02-20T03:03:13.778Z,2.60
2019-02-20T03:04:13.813Z,2.66
2019-02-20T03:05:13.756Z,2.69
2019-02-20T03:06:13.750Z,2.72
2019-02-20T03:07:13.735Z,2.71
2019-02-20T03:08:13.724Z,2.71
2019-02-20T03:09:13.715Z,2.71
2019-02-20T03:10:13.776Z,2.72
2019-02-20T03:11:13.691Z,2.84
2019-02-20T03:12:13.679Z,2.79
2019-02-20T03:13:13.670Z,2.86
2019-02-20T03:14:13.699Z,2.81
2019-02-20T03:15:13.670Z,2.81
2019-02-20T03:16:13.636Z,2.89
2019-02-20T03:17:13.622Z,2.86
2019-02-20T03:18:13.620Z,3.02
2019-02-20T03:19:13.601Z,2.96
2019-02-20T03:20:13.636Z,2.94
2019-02-20T03:21:13.580Z,2.91
2019-02-20T03:22:13.571Z,2.96
2019-02-20T03:23:13.561Z,2.94
2019-02-20T03:24:13.558Z,2.96
2019-02-20T03:25:13.533Z,2.96
2019-02-20T03:26:13.570Z,3.07
2019-02-20T03:27:13.512Z,2.91
2019-02-20T03:28:13.547Z,2.99
2019-02-20T03:29:13.488Z,3.15
2019-02-20T03:30:13.482Z,3.09
2019-02-20T03:31:13.520Z,3.11
2019-02-20T03:32:13.460Z,3.14
2019-02-20T03:33:13.447Z,3.12
2019-02-20T03:34:13.485Z,3.22
2019-02-20T03:35:13.430Z,3.25
2019-02-20T03:36:13.412Z,3.26
2019-02-20T03:37:13.406Z,3.27
2019-02-20T03:38:13.451Z,3.29
2019-02-20T03:39:13.381Z,3.23
2019-02-20T03:40:13.368Z,3.26
2019-02-20T03:41:13.363Z,3.29
2019-02-20T03:42:13.393Z,3.27
2019-02-20T03:43:13.338Z,3.27
2019-02-20T03:44:13.322Z,3.32
2019-02-20T03:45:13.318Z,3.30
2019-02-20T03:46:13.301Z,3.25
2019-02-20T03:47:13.336Z,3.29
2019-02-20T03:48:13.281Z,3.18
2019-02-20T03:49:13.270Z,3.15
2019-02-20T03:50:13.300Z,3.20
2019-02-20T03:51:13.250Z,3.41
2019-02-20T03:52:13.247Z,3.45
2019-02-20T03:53:13.226Z,3.32
2019-02-20T03:54:13.223Z,3.23
2019-02-20T03:55:13.214Z,3.32
2019-02-20T03:56:13.231Z,3.33
2019-02-20T03:57:13.192Z,3.37
2019-02-20T03:58:13.194Z,3.29
2019-02-20T03:59:13.164Z,3.29
2019-02-20T04:00:13.159Z,3.35
2019-02-20T04:01:13.208Z,3.23
2019-02-20T04:02:13.125Z,3.27
2019-02-20T04:03:13.116Z,3.27
2019-02-20T04:04:13.108Z,3.30
2019-02-20T04:05:13.095Z,3.22
2019-02-20T04:06:13.084Z,3.22
2019-02-20T04:07:13.126Z,3.33
2019-02-20T04:08:13.108Z,3.25
2019-02-20T04:09:13.051Z,3.29
2019-02-20T04:10:13.045Z,3.29
2019-02-20T04:11:13.030Z,3.23
2019-02-20T04:12:13.042Z,3.29
2019-02-20T04:13:13.055Z,3.27
2019-02-20T04:14:12.999Z,3.25
2019-02-20T04:15:12.998Z,3.26
2019-02-20T04:16:13.016Z,3.35
2019-02-20T04:17:12.963Z,3.32
2019-02-20T04:18:12.953Z,3.27
2019-02-20T04:19:12.944Z,3.35
2019-02-20T04:20:12.932Z,3.42
2019-02-20T04:21:12.923Z,3.35
2019-02-20T04:22:12.954Z,3.33
2019-02-20T04:23:12.905Z,3.36
2019-02-20T04:24:12.890Z,3.52
2019-02-20T04:25:12.920Z,3.42
2019-02-20T04:26:12.866Z,3.41
2019-02-20T04:27:12.856Z,3.45
2019-02-20T04:28:12.848Z,3.41
2019-02-20T04:29:12.832Z,3.27
2019-02-20T04:30:12.822Z,3.33
2019-02-20T04:31:12.854Z,3.33
2019-02-20T04:32:12.806Z,3.26
2019-02-20T04:33:12.792Z,3.36
2019-02-20T04:34:12.776Z,3.29
2019-02-20T04:35:12.770Z,3.29
2019-02-20T04:36:12.802Z,3.35
2019-02-20T04:37:12.764Z,3.37
2019-02-20T04:38:12.750Z,3.36
2019-02-20T04:39:12.855Z,3.35
2019-02-20T04:40:12.907Z,3.41
2019-02-20T04:41:12.710Z,3.41
2019-02-20T04:42:12.693Z,3.35
2019-02-20T04:43:12.680Z,3.37
2019-02-20T04:44:12.673Z,3.48
2019-02-20T04:45:12.657Z,3.44
2019-02-20T04:46:12.717Z,3.49
2019-02-20T04:47:12.643Z,3.46
2019-02-20T04:48:12.674Z,3.52
2019-02-20T04:49:12.613Z,3.52
2019-02-20T04:50:12.608Z,3.60
2019-02-20T04:51:12.598Z,3.59
2019-02-20T04:52:12.675Z,3.59
2019-02-20T04:53:12.573Z,3.62
2019-02-20T04:54:13.740Z,3.70
2019-02-20T04:55:12.553Z,3.62
2019-02-20T04:56:12.548Z,3.66
2019-02-20T04:57:12.530Z,3.55
2019-02-20T04:58:12.569Z,3.54
2019-02-20T04:59:12.507Z,3.63
2019-02-20T05:00:12.492Z,3.52
2019-02-20T05:01:12.487Z,3.62
2019-02-20T05:02:12.471Z,3.52
2019-02-20T05:03:12.462Z,3.59
2019-02-20T05:04:12.491Z,3.59
2019-02-20T05:05:12.453Z,3.66
2019-02-20T05:06:12.438Z,3.73
2019-02-20T05:07:12.424Z,3.66
2019-02-20T05:08:12.418Z,3.66
2019-02-20T05:09:12.444Z,3.64
2019-02-20T05:10:12.428Z,3.59
2019-02-20T05:11:12.382Z,3.62
2019-02-20T05:12:12.402Z,3.55
2019-02-20T05:13:12.351Z,3.59
2019-02-20T05:14:12.342Z,3.66
2019-02-20T05:15:12.389Z,3.70
2019-02-20T05:16:12.318Z,3.73
2019-02-20T05:17:12.351Z,3.72
2019-02-20T05:18:12.299Z,3.70
2019-02-20T05:19:12.295Z,3.80
2019-02-20T05:20:12.304Z,3.82
2019-02-20T05:21:12.315Z,3.76
2019-02-20T05:22:12.252Z,3.76
2019-02-20T05:23:12.262Z,3.90
2019-02-20T05:24:12.240Z,3.87
2019-02-20T05:25:12.224Z,3.98
2019-02-20T05:26:12.208Z,3.87
2019-02-20T05:27:12.240Z,3.99
2019-02-20T05:28:12.197Z,3.94
2019-02-20T05:29:12.218Z,3.90
2019-02-20T05:30:12.169Z,4.00
2019-02-20T05:31:12.209Z,3.90
2019-02-20T05:32:12.142Z,3.91
2019-02-20T05:33:12.132Z,3.81
2019-02-20T05:34:12.128Z,3.81
2019-02-20T05:35:12.108Z,3.88
2019-02-20T05:36:12.101Z,3.82
2019-02-20T05:37:12.132Z,3.92
2019-02-20T05:38:12.077Z,3.80
2019-02-20T05:39:12.068Z,3.81
2019-02-20T05:40:12.067Z,3.84
2019-02-20T05:41:12.046Z,3.74
2019-02-20T05:42:12.032Z,3.80
2019-02-20T05:43:12.060Z,3.76
2019-02-20T05:44:12.053Z,3.72
2019-02-20T05:45:12.002Z,3.73
2019-02-20T05:46:11.991Z,3.82
2019-02-20T05:47:11.982Z,3.72
2019-02-20T05:48:11.969Z,3.73
2019-02-20T05:49:11.955Z,3.81
2019-02-20T05:50:11.982Z,3.70
2019-02-20T05:51:11.932Z,3.66
2019-02-20T05:52:11.921Z,3.72
2019-02-20T05:53:11.958Z,3.62
2019-02-20T05:54:11.940Z,3.62
2019-02-20T05:55:11.936Z,3.56
2019-02-20T05:56:11.876Z,3.67
2019-02-20T05:57:11.865Z,3.59
2019-02-20T05:58:11.901Z,3.62
2019-02-20T05:59:11.893Z,3.46
2019-02-20T06:00:11.876Z,3.62
2019-02-20T06:01:11.831Z,3.56
2019-02-20T06:02:11.828Z,3.54
2019-02-20T06:03:11.820Z,3.44
2019-02-20T06:04:11.793Z,3.37
2019-02-20T06:05:11.826Z,3.22
2019-02-20T06:06:11.772Z,3.37
2019-02-20T06:07:11.809Z,3.35
2019-02-20T06:08:11.795Z,3.33
2019-02-20T06:09:11.933Z,3.35
2019-02-20T06:10:11.735Z,3.26
2019-02-20T06:11:14.773Z,3.33
2019-02-20T06:12:11.741Z,3.27
2019-02-20T06:13:11.694Z,3.27
2019-02-20T06:14:11.685Z,3.26
2019-02-20T06:15:11.721Z,3.33
2019-02-20T06:16:11.668Z,3.29
2019-02-20T06:17:11.659Z,3.46
2019-02-20T06:18:11.682Z,3.36
2019-02-20T06:19:11.627Z,3.45
2019-02-20T06:20:11.627Z,3.48
2019-02-20T06:21:11.655Z,3.48
2019-02-20T06:22:11.604Z,3.56
2019-02-20T06:23:11.715Z,3.46
2019-02-20T06:24:11.586Z,3.41
2019-02-20T06:25:11.666Z,3.30
2019-02-20T06:26:11.596Z,3.22
2019-02-20T06:27:11.545Z,3.32
2019-02-20T06:28:11.537Z,3.36
2019-02-20T06:29:11.517Z,3.49
2019-02-20T06:30:11.566Z,3.46
2019-02-20T06:31:11.542Z,3.67
2019-02-20T06:32:11.504Z,3.72
2019-02-20T06:33:11.487Z,3.55
2019-02-20T06:34:11.858Z,3.59
2019-02-20T06:35:11.453Z,3.51
2019-02-20T06:36:11.447Z,3.54
2019-02-20T06:37:11.429Z,3.51
2019-02-20T06:38:11.778Z,3.54
2019-02-20T06:39:11.430Z,3.44
2019-02-20T06:40:11.443Z,3.46
2019-02-20T06:41:11.403Z,3.37
2019-02-20T06:42:11.377Z,3.44
2019-02-20T06:43:11.359Z,3.30
2019-02-20T06:44:11.397Z,3.35
2019-02-20T06:45:11.437Z,3.23
2019-02-20T06:46:11.395Z,3.33
2019-02-20T06:47:11.401Z,3.23
2019-02-20T06:48:11.315Z,3.33
2019-02-20T06:49:11.339Z,3.22
2019-02-20T06:50:11.294Z,3.29
2019-02-20T06:51:11.274Z,3.25
2019-02-20T06:52:11.310Z,3.22
2019-02-20T06:53:11.266Z,3.33
2019-02-20T06:54:11.251Z,3.27
2019-02-20T06:55:11.253Z,3.29
2019-02-20T06:56:11.224Z,3.26
2019-02-20T06:57:11.205Z,3.29
2019-02-20T06:58:11.278Z,3.29
2019-02-20T06:59:11.259Z,3.32
2019-02-20T07:00:11.228Z,3.44
2019-02-20T07:01:11.190Z,3.33
2019-02-20T07:02:11.159Z,3.42
2019-02-20T07:03:11.160Z,3.35
2019-02-20T07:04:11.129Z,3.36
2019-02-20T07:05:11.118Z,3.30
2019-02-20T07:06:11.200Z,3.48
2019-02-20T07:07:11.106Z,3.44
2019-02-20T07:08:11.158Z,3.37
2019-02-20T07:09:11.111Z,3.36
2019-02-20T07:10:11.101Z,3.44
2019-02-20T07:11:11.153Z,3.59
2019-02-20T07:12:11.156Z,3.48
2019-02-20T07:13:11.048Z,3.46
2019-02-20T07:14:11.065Z,3.59
2019-02-20T07:15:11.099Z,3.54
2019-02-20T07:16:11.037Z,3.46
2019-02-20T07:17:11.002Z,3.44
2019-02-20T07:18:10.986Z,3.49
2019-02-20T07:19:10.971Z,3.48
2019-02-20T07:20:11.018Z,3.48
2019-02-20T07:21:10.948Z,3.44
2019-02-20T07:22:10.933Z,3.44
2019-02-20T07:23:10.965Z,3.48
2019-02-20T07:24:10.933Z,3.49
2019-02-20T07:25:10.943Z,3.49
2019-02-20T07:26:10.890Z,3.46
2019-02-20T07:27:10.885Z,3.41
2019-02-20T07:28:10.876Z,3.56
2019-02-20T07:29:10.912Z,3.60
2019-02-20T07:30:10.842Z,3.59
2019-02-20T07:31:10.836Z,3.62
2019-02-20T07:32:10.828Z,3.59
2019-02-20T07:33:10.819Z,3.63
2019-02-20T07:34:10.877Z,3.56
2019-02-20T07:35:10.792Z,3.59
2019-02-20T07:36:10.787Z,3.56
2019-02-20T07:37:10.808Z,3.78
2019-02-20T07:38:10.762Z,3.59
2019-02-20T07:39:10.748Z,3.55
2019-02-20T07:40:10.789Z,3.62
2019-02-20T07:41:10.727Z,3.72
2019-02-20T07:42:10.719Z,3.82
2019-02-20T07:43:10.717Z,3.78
2019-02-20T07:44:10.690Z,3.96
2019-02-20T07:45:10.712Z,3.85
2019-02-20T07:46:10.713Z,3.90
2019-02-20T07:47:10.714Z,3.92
2019-02-20T07:48:10.654Z,3.92
2019-02-20T07:49:10.692Z,3.99
2019-02-20T07:50:10.742Z,4.06
2019-02-20T07:51:10.658Z,4.02
2019-02-20T07:52:10.631Z,4.09
2019-02-20T07:53:10.649Z,4.10
2019-02-20T07:54:10.777Z,4.13
2019-02-20T07:55:13.715Z,4.23
2019-02-20T07:56:10.756Z,4.20
2019-02-20T07:57:10.558Z,4.21
2019-02-20T07:58:10.540Z,4.26
2019-02-20T07:59:10.574Z,4.21
2019-02-20T08:00:10.596Z,4.42
2019-02-20T08:01:10.548Z,4.31
2019-02-20T08:02:10.499Z,4.24
2019-02-20T08:03:10.519Z,4.23
2019-02-20T08:04:10.563Z,4.21
2019-02-20T08:05:10.477Z,4.23
2019-02-20T08:06:10.526Z,4.21
2019-02-20T08:07:10.443Z,4.31
2019-02-20T08:08:10.447Z,4.43
2019-02-20T08:09:10.437Z,4.46
2019-02-20T08:10:10.421Z,4.56
2019-02-20T08:11:14.620Z,4.51
2019-02-20T08:12:10.457Z,4.59
2019-02-20T08:13:10.421Z,4.60
2019-02-20T08:14:10.506Z,4.59
2019-02-20T08:15:10.973Z,4.59
2019-02-20T08:16:10.375Z,4.72
2019-02-20T08:17:10.328Z,4.78
2019-02-20T08:18:10.515Z,4.74
2019-02-20T08:19:10.369Z,4.74
2019-02-20T08:20:10.302Z,4.75
2019-02-20T08:21:10.288Z,4.77
2019-02-20T08:22:10.293Z,4.83
2019-02-20T08:23:10.275Z,4.91
2019-02-20T08:24:10.362Z,5.03
2019-02-20T08:25:10.256Z,5.06
2019-02-20T08:26:10.253Z,5.12
2019-02-20T08:27:10.252Z,5.04
2019-02-20T08:28:10.347Z,5.16
2019-02-20T08:29:10.245Z,5.19
2019-02-20T08:30:10.257Z,5.22
2019-02-20T08:31:10.182Z,5.07
2019-02-20T08:32:10.218Z,5.21
2019-02-20T08:33:10.206Z,5.25
2019-02-20T08:34:10.181Z,5.27
2019-02-20T08:35:10.144Z,5.34
2019-02-20T08:36:10.379Z,5.33
2019-02-20T08:37:10.160Z,5.29
2019-02-20T08:38:10.103Z,5.33
2019-02-20T08:39:11.195Z,5.43
2019-02-20T08:40:10.089Z,5.57
2019-02-20T08:41:10.066Z,5.51
2019-02-20T08:42:10.094Z,5.59
2019-02-20T08:43:10.053Z,5.67
2019-02-20T08:44:10.036Z,5.61
2019-02-20T08:45:10.094Z,5.57
2019-02-20T08:46:10.027Z,5.54
2019-02-20T08:47:10.663Z,5.54
2019-02-20T08:48:10.127Z,5.54
2019-02-20T08:49:09.997Z,5.43
2019-02-20T08:50:10.117Z,5.44
2019-02-20T08:51:10.118Z,5.55
2019-02-20T08:52:10.007Z,5.58
2019-02-20T08:53:09.959Z,5.57
2019-02-20T08:54:10.360Z,5.66
2019-02-20T08:55:10.000Z,5.67
2019-02-20T08:56:10.393Z,5.62
2019-02-20T08:57:10.097Z,5.62
2019-02-20T08:58:09.964Z,5.70
2019-02-20T08:59:14.990Z,5.65
2019-02-20T09:00:09.878Z,5.69
2019-02-20T09:01:09.858Z,5.72
2019-02-20T09:02:09.864Z,5.85
2019-02-20T09:03:09.865Z,5.98
2019-02-20T09:04:09.929Z,5.94
2019-02-20T09:05:09.861Z,6.12
2019-02-20T09:06:09.819Z,6.11
2019-02-20T09:07:09.786Z,6.08
2019-02-20T09:08:09.790Z,6.09
2019-02-20T09:09:09.768Z,6.28
2019-02-20T09:10:09.767Z,6.28
2019-02-20T09:11:09.814Z,6.24
2019-02-20T09:12:09.730Z,6.40
2019-02-20T09:13:09.718Z,6.50
2019-02-20T09:14:10.226Z,6.52
2019-02-20T09:15:09.706Z,6.55
2019-02-20T09:16:09.757Z,6.49
2019-02-20T09:17:09.688Z,6.63
2019-02-20T09:18:09.964Z,6.60
2019-02-20T09:19:09.687Z,6.75
2019-02-20T09:20:09.679Z,6.78
2019-02-20T09:21:09.645Z,6.96
2019-02-20T09:22:09.702Z,6.97
2019-02-20T09:23:09.657Z,7.07
2019-02-20T09:24:09.810Z,7.08
2019-02-20T09:25:09.590Z,7.11
2019-02-20T09:26:09.615Z,7.18
2019-02-20T09:27:09.567Z,7.04
2019-02-20T09:28:09.569Z,7.11
2019-02-20T09:29:09.595Z,7.22
2019-02-20T09:30:09.530Z,7.18
2019-02-20T09:31:09.516Z,7.25
2019-02-20T09:32:09.555Z,7.25
2019-02-20T09:33:09.780Z,7.34
2019-02-20T09:34:09.491Z,7.40
2019-02-20T09:35:09.490Z,7.33
2019-02-20T09:36:09.542Z,7.42
2019-02-20T09:37:09.507Z,7.43
2019-02-20T09:38:10.518Z,7.42
2019-02-20T09:39:09.853Z,7.58
2019-02-20T09:40:09.497Z,7.64
2019-02-20T09:41:09.476Z,7.78
2019-02-20T09:42:09.393Z,7.74
2019-02-20T09:43:09.385Z,7.86
2019-02-20T09:44:09.421Z,7.86
2019-02-20T09:45:09.444Z,7.95
2019-02-20T09:46:09.354Z,7.98
2019-02-20T09:47:09.375Z,7.96
2019-02-20T09:48:09.434Z,7.91
2019-02-20T09:49:09.342Z,7.87
2019-02-20T09:50:09.369Z,7.88
2019-02-20T09:51:09.386Z,7.95
2019-02-20T09:52:09.312Z,7.98
2019-02-20T09:53:09.310Z,7.96
2019-02-20T09:54:09.265Z,7.99
2019-02-20T09:55:09.297Z,8.04
2019-02-20T09:56:09.242Z,8.14
2019-02-20T09:57:09.307Z,8.23
2019-02-20T09:58:09.367Z,8.26
2019-02-20T09:59:09.215Z,8.24
2019-02-20T10:00:09.358Z,8.34
2019-02-20T10:01:09.354Z,8.32
2019-02-20T10:02:09.210Z,8.50
2019-02-20T10:03:09.248Z,8.57
2019-02-20T10:04:09.275Z,8.59
2019-02-20T10:05:09.316Z,8.57
2019-02-20T10:06:09.155Z,8.78
2019-02-20T10:07:09.783Z,8.81
2019-02-20T10:08:09.545Z,8.89
2019-02-20T10:09:09.956Z,9.04
2019-02-20T10:10:09.174Z,9.08
2019-02-20T10:11:09.124Z,9.24
2019-02-20T10:12:09.100Z,9.30
2019-02-20T10:13:11.437Z,9.37
2019-02-20T10:14:09.033Z,9.50
2019-02-20T10:15:09.067Z,9.55
2019-02-20T10:16:09.023Z,9.77
2019-02-20T10:17:09.090Z,9.72
2019-02-20T10:18:09.004Z,9.80
2019-02-20T10:19:09.180Z,9.73
2019-02-20T10:20:08.973Z,9.65
2019-02-20T10:21:09.021Z,9.59
2019-02-20T10:22:08.958Z,9.63
2019-02-20T10:23:09.050Z,9.69
2019-02-20T10:24:08.974Z,9.70
2019-02-20T10:25:09.331Z,9.85
2019-02-20T10:26:08.990Z,9.84
2019-02-20T10:27:08.894Z,9.90
2019-02-20T10:28:08.948Z,9.87
2019-02-20T10:29:08.885Z,9.84
2019-02-20T10:30:08.930Z,9.84
2019-02-20T10:31:08.888Z,10.05
2019-02-20T10:32:08.843Z,9.90
2019-02-20T10:33:08.815Z,9.99
2019-02-20T10:34:08.882Z,9.98
2019-02-20T10:35:08.814Z,9.99
2019-02-20T10:36:08.836Z,9.91
2019-02-20T10:37:08.781Z,9.94
2019-02-20T10:38:08.770Z,9.88
2019-02-20T10:39:08.744Z,9.96
2019-02-20T10:40:08.774Z,10.01
2019-02-20T10:41:08.748Z,9.99
2019-02-20T10:42:08.862Z,9.96
2019-02-20T10:43:08.750Z,10.06
2019-02-20T10:44:08.757Z,10.14
2019-02-20T10:45:08.733Z,10.28
2019-02-20T10:46:09.166Z,10.30
2019-02-20T10:47:08.778Z,10.41
2019-02-20T10:48:09.399Z,10.57
2019-02-20T10:49:09.165Z,10.55
2019-02-20T10:50:09.138Z,10.46
2019-02-20T10:51:08.988Z,10.61
2019-02-20T10:52:08.714Z,10.61
2019-02-20T10:53:08.600Z,10.68
2019-02-20T10:54:08.577Z,10.79
2019-02-20T10:55:08.562Z,10.87
2019-02-20T10:56:09.665Z,10.85
2019-02-20T10:57:08.545Z,10.91
2019-02-20T10:58:08.531Z,11.05
2019-02-20T10:59:08.527Z,11.18
2019-02-20T11:00:08.525Z,11.40
2019-02-20T11:01:08.641Z,11.55
2019-02-20T11:02:08.907Z,11.58
2019-02-20T11:03:08.502Z,11.66
2019-02-20T11:04:08.566Z,11.70
2019-02-20T11:05:08.448Z,11.89
2019-02-20T11:06:08.452Z,12.14
2019-02-20T11:07:08.473Z,12.10
2019-02-20T11:08:08.423Z,12.25
2019-02-20T11:09:08.421Z,12.35
2019-02-20T11:10:08.396Z,12.38
2019-02-20T11:11:08.420Z,12.44
2019-02-20T11:12:08.435Z,12.47
2019-02-20T11:13:08.430Z,12.41
2019-02-20T11:14:08.356Z,12.47
2019-02-20T11:15:08.354Z,12.48
2019-02-20T11:16:08.358Z,12.43
2019-02-20T11:17:08.313Z,12.50
2019-02-20T11:18:08.318Z,12.41
2019-02-20T11:19:08.551Z,12.35
2019-02-20T11:20:08.553Z,12.30
2019-02-20T11:21:08.911Z,12.36
2019-02-20T11:22:09.365Z,12.46
2019-02-20T11:23:08.290Z,12.32
2019-02-20T11:24:08.237Z,12.14
2019-02-20T11:25:08.297Z,12.29
2019-02-20T11:26:08.217Z,12.35
2019-02-20T11:27:08.272Z,12.43
2019-02-20T11:28:08.259Z,12.41
2019-02-20T11:29:08.191Z,12.43
2019-02-20T11:30:08.183Z,12.48
2019-02-20T11:31:08.215Z,12.46
2019-02-20T11:32:08.154Z,12.65
2019-02-20T11:33:08.155Z,12.80
2019-02-20T11:34:08.260Z,12.99
2019-02-20T11:35:08.122Z,13.17
2019-02-20T11:36:08.162Z,13.23
2019-02-20T11:37:08.157Z,13.20
2019-02-20T11:38:08.115Z,13.29
2019-02-20T11:39:08.092Z,13.17
2019-02-20T11:40:08.080Z,13.21
2019-02-20T11:41:08.051Z,13.16
2019-02-20T11:42:08.060Z,13.16
2019-02-20T11:43:08.217Z,13.21
2019-02-20T11:44:08.013Z,13.24
2019-02-20T11:45:07.998Z,13.13
2019-02-20T11:46:08.011Z,13.06
2019-02-20T11:47:08.005Z,13.21
2019-02-20T11:48:07.981Z,13.19
2019-02-20T11:49:08.038Z,13.17
2019-02-20T11:50:07.999Z,13.21
2019-02-20T11:51:07.960Z,13.26
2019-02-20T11:52:07.958Z,13.30
2019-02-20T11:53:07.947Z,13.19
2019-02-20T11:54:07.933Z,13.09
2019-02-20T11:55:07.934Z,13.16
2019-02-20T11:56:07.925Z,13.11
2019-02-20T11:57:07.868Z,13.14
2019-02-20T11:58:07.862Z,13.17
2019-02-20T11:59:07.927Z,13.38
2019-02-20T12:00:07.830Z,13.26
2019-02-20T12:01:07.836Z,13.17
2019-02-20T12:02:07.828Z,13.13
2019-02-20T12:03:07.849Z,12.91
2019-02-20T12:04:07.795Z,12.80
2019-02-20T12:05:07.783Z,12.69
2019-02-20T12:06:07.797Z,12.76
2019-02-20T12:07:07.766Z,12.61
2019-02-20T12:08:07.748Z,12.66
2019-02-20T12:09:07.781Z,12.77
2019-02-20T12:10:07.722Z,12.95
2019-02-20T12:11:07.714Z,12.86
2019-02-20T12:12:09.403Z,12.95
2019-02-20T12:13:07.687Z,12.88
2019-02-20T12:14:07.728Z,12.90
2019-02-20T12:15:07.664Z,12.99
2019-02-20T12:16:07.659Z,13.16
2019-02-20T12:17:07.644Z,13.17
2019-02-20T12:18:07.633Z,13.38
2019-02-20T12:19:07.615Z,13.49
2019-02-20T12:20:07.662Z,13.54
2019-02-20T12:21:07.625Z,13.64
2019-02-20T12:22:07.586Z,13.73
2019-02-20T12:23:07.580Z,13.82
2019-02-20T12:24:07.588Z,13.85
2019-02-20T12:25:07.568Z,13.88
2019-02-20T12:26:07.602Z,13.88
2019-02-20T12:27:07.538Z,13.73
2019-02-20T12:28:07.568Z,13.88
2019-02-20T12:29:07.510Z,13.94
2019-02-20T12:30:07.499Z,13.97
2019-02-20T12:31:07.491Z,14.08
2019-02-20T12:32:07.491Z,14.09
2019-02-20T12:33:07.479Z,14.03
2019-02-20T12:34:07.560Z,14.21
2019-02-20T12:35:07.472Z,14.19
2019-02-20T12:36:07.428Z,14.15
2019-02-20T12:37:07.427Z,14.16
2019-02-20T12:38:07.405Z,14.12
2019-02-20T12:39:07.397Z,14.09
2019-02-20T12:40:07.432Z,13.91
2019-02-20T12:41:07.445Z,13.96
2019-02-20T12:42:07.424Z,13.96
2019-02-20T12:43:07.403Z,13.83
2019-02-20T12:44:07.346Z,13.71
2019-02-20T12:45:07.369Z,13.63
2019-02-20T12:46:07.327Z,13.68
2019-02-20T12:47:07.311Z,13.93
2019-02-20T12:48:07.333Z,14.04
2019-02-20T12:49:07.298Z,14.26
2019-02-20T12:50:07.288Z,14.33
2019-02-20T12:51:07.310Z,14.41
2019-02-20T12:52:07.255Z,14.31
2019-02-20T12:53:07.245Z,14.15
2019-02-20T12:54:07.235Z,14.01
2019-02-20T12:55:07.237Z,14.08
2019-02-20T12:56:09.965Z,14.11
2019-02-20T12:57:07.190Z,14.04
2019-02-20T12:58:07.182Z,14.08
2019-02-20T12:59:08.003Z,14.23
2019-02-20T13:00:07.202Z,14.28
2019-02-20T13:01:07.158Z,14.13
2019-02-20T13:02:07.180Z,14.34
2019-02-20T13:03:07.136Z,14.34
2019-02-20T13:04:07.128Z,14.28
2019-02-20T13:05:07.146Z,14.28
2019-02-20T13:06:07.091Z,14.21
2019-02-20T13:07:07.080Z,14.30
2019-02-20T13:08:07.113Z,14.33
2019-02-20T13:09:07.066Z,14.30
2019-02-20T13:10:07.044Z,14.12
2019-02-20T13:11:07.078Z,14.00
2019-02-20T13:12:07.024Z,13.93
2019-02-20T13:13:07.022Z,13.96